createdAt,value
2023-04-26T00:01:54.303Z,6.70
2023-04-26T00:04:44.304Z,6.24
2023-04-26T00:07:31.560Z,5.91
2023-04-26T00:10:18.077Z,5.67
2023-04-26T00:13:04.860Z,5.49
2023-04-26T00:15:51.935Z,5.98
2023-04-26T00:18:38.896Z,7.37
2023-04-26T00:21:25.353Z,8.00
2023-04-26T00:24:11.972Z,7.35
2023-04-26T00:26:58.109Z,6.73
2023-04-26T00:29:44.610Z,6.33
2023-04-26T00:32:31.464Z,6.05
2023-04-26T00:35:18.586Z,6.18
2023-04-26T00:38:07.185Z,7.49
2023-04-26T00:40:53.783Z,8.13
2023-04-26T00:43:40.721Z,7.47
2023-04-26T00:46:29.359Z,6.89
2023-04-26T00:49:18.589Z,6.48
2023-04-26T00:52:05.510Z,6.18
2023-04-26T00:54:53.887Z,6.21
2023-04-26T00:57:40.479Z,7.44
2023-04-26T01:00:27.206Z,8.63
2023-04-26T01:03:13.928Z,9.06
2023-04-26T01:06:00.988Z,8.28
2023-04-26T01:08:47.698Z,7.53
2023-04-26T01:11:37.611Z,7.01
2023-04-26T01:14:24.691Z,6.62
2023-04-26T01:17:11.269Z,6.36
2023-04-26T01:19:59.559Z,6.14
2023-04-26T01:22:47.198Z,6.37
2023-04-26T01:25:36.032Z,7.79
2023-04-26T01:28:22.725Z,8.44
2023-04-26T01:31:09.881Z,7.79
2023-04-26T01:33:56.193Z,7.15
2023-04-26T01:36:42.886Z,6.71
2023-04-26T01:39:29.126Z,6.42
2023-04-26T01:42:15.458Z,6.54
2023-04-26T01:45:02.178Z,7.77
2023-04-26T01:48:08.388Z,8.19
2023-04-26T01:50:54.916Z,7.54
2023-04-26T01:53:41.778Z,6.97
2023-04-26T01:56:28.449Z,6.59
2023-04-26T01:59:15.176Z,6.33
2023-04-26T02:02:01.832Z,7.09
2023-04-26T02:04:48.525Z,8.31
2023-04-26T02:07:35.228Z,8.01
2023-04-26T02:10:21.681Z,7.32
2023-04-26T02:13:08.437Z,6.86
2023-04-26T02:15:54.978Z,6.53
2023-04-26T02:18:41.619Z,6.29
2023-04-26T02:21:30.182Z,6.67
2023-04-26T02:24:16.990Z,8.01
2023-04-26T02:27:04.773Z,8.98
2023-04-26T02:29:51.091Z,8.56
2023-04-26T02:32:37.542Z,7.70
2023-04-26T02:35:24.302Z,7.12
2023-04-26T02:38:10.965Z,6.72
2023-04-26T02:41:02.600Z,6.41
2023-04-26T02:43:49.896Z,6.62
2023-04-26T02:46:36.657Z,7.89
2023-04-26T02:49:23.927Z,8.82
2023-04-26T02:52:10.425Z,8.31
2023-04-26T02:54:57.515Z,7.58
2023-04-26T02:57:44.539Z,7.03
2023-04-26T03:00:33.616Z,6.65
2023-04-26T03:03:21.471Z,6.37
2023-04-26T03:06:08.417Z,6.50
2023-04-26T03:08:55.178Z,7.72
2023-04-26T03:11:41.878Z,8.71
2023-04-26T03:14:28.650Z,8.32
2023-04-26T03:17:15.877Z,7.54
2023-04-26T03:20:05.539Z,6.99
2023-04-26T03:22:53.089Z,6.57
2023-04-26T03:25:39.605Z,6.59
2023-04-26T03:28:26.239Z,7.70
2023-04-26T03:31:13.198Z,8.69
2023-04-26T03:34:00.777Z,8.47
2023-04-26T03:36:47.824Z,7.65
2023-04-26T03:39:34.367Z,7.05
2023-04-26T03:42:20.882Z,6.62
2023-04-26T03:45:08.541Z,6.68
2023-04-26T03:47:56.206Z,7.90
2023-04-26T03:50:44.383Z,8.68
2023-04-26T03:53:31.063Z,8.13
2023-04-26T03:56:17.314Z,7.37
2023-04-26T03:59:03.725Z,6.86
2023-04-26T04:01:50.553Z,6.52
2023-04-26T04:04:37.197Z,7.18
2023-04-26T04:07:23.567Z,8.20
2023-04-26T04:10:10.630Z,7.97
2023-04-26T04:13:07.471Z,7.28
2023-04-26T04:15:54.195Z,6.73
2023-04-26T04:18:41.219Z,6.75
2023-04-26T04:21:28.276Z,7.92
2023-04-26T04:24:16.849Z,9.04
2023-04-26T04:27:03.897Z,9.34
2023-04-26T04:29:54.554Z,8.42
2023-04-26T04:32:44.455Z,7.65
2023-04-26T04:35:33.073Z,7.10
2023-04-26T04:38:20.796Z,6.73
2023-04-26T04:41:08.145Z,6.73
2023-04-26T04:43:54.611Z,7.86
2023-04-26T04:46:44.914Z,8.97
2023-04-26T04:49:31.164Z,8.81
2023-04-26T04:52:19.054Z,8.01
2023-04-26T04:55:06.323Z,7.42
2023-04-26T04:57:55.539Z,7.02
2023-04-26T05:00:42.784Z,6.73
2023-04-26T05:03:38.410Z,6.87
2023-04-26T05:06:26.936Z,8.25
2023-04-26T05:09:13.230Z,9.43
2023-04-26T05:12:00.913Z,9.60
2023-04-26T05:14:47.691Z,8.67
2023-04-26T05:17:36.108Z,7.92
2023-04-26T05:20:51.864Z,7.38
2023-04-26T05:23:38.609Z,7.07
2023-04-26T05:26:25.795Z,6.82
2023-04-26T05:29:38.805Z,7.31
2023-04-26T05:32:45.323Z,8.82
2023-04-26T05:35:45.269Z,9.55
2023-04-26T05:38:32.020Z,8.95
2023-04-26T05:41:20.034Z,8.38
2023-04-26T05:44:09.276Z,8.04
2023-04-26T05:46:56.392Z,7.86
2023-04-26T05:49:46.927Z,7.76
2023-04-26T05:52:34.704Z,7.70
2023-04-26T05:55:22.338Z,7.88
2023-04-26T05:58:10.505Z,9.23
2023-04-26T06:00:57.555Z,9.84
2023-04-26T06:03:46.034Z,9.53
2023-04-26T06:06:37.181Z,9.12
2023-04-26T06:09:23.702Z,8.77
2023-04-26T06:12:11.620Z,8.43
2023-04-26T06:15:00.484Z,8.08
2023-04-26T06:17:48.084Z,7.77
2023-04-26T06:20:36.119Z,7.49
2023-04-26T06:23:25.641Z,7.27
2023-04-26T06:26:12.356Z,7.11
2023-04-26T06:28:58.756Z,6.95
2023-04-26T06:31:45.708Z,6.86
2023-04-26T06:34:33.449Z,7.05
2023-04-26T06:37:20.917Z,8.25
2023-04-26T06:40:08.626Z,8.88
2023-04-26T06:42:56.619Z,9.41
2023-04-26T06:45:54.630Z,9.87
2023-04-26T06:48:41.345Z,9.93
2023-04-26T06:51:29.160Z,9.83
2023-04-26T06:54:15.845Z,9.67
2023-04-26T06:57:02.530Z,9.45
2023-04-26T06:59:48.678Z,9.18
2023-04-26T07:02:35.360Z,8.98
2023-04-26T07:05:22.263Z,8.89
2023-04-26T07:08:08.787Z,8.74
2023-04-26T07:10:55.242Z,8.60
2023-04-26T07:13:41.443Z,8.41
2023-04-26T07:16:28.162Z,8.18
2023-04-26T07:19:14.645Z,8.03
2023-04-26T07:22:01.149Z,7.88
2023-04-26T07:24:47.983Z,7.75
2023-04-26T07:27:34.094Z,7.88
2023-04-26T07:30:20.761Z,8.18
2023-04-26T07:33:07.538Z,8.41
2023-04-26T07:35:58.906Z,8.51
2023-04-26T07:38:45.429Z,8.58
2023-04-26T07:41:32.156Z,8.59
2023-04-26T07:44:18.911Z,8.56
2023-04-26T07:47:05.588Z,8.50
2023-04-26T07:49:53.966Z,8.34
2023-04-26T07:52:40.426Z,8.17
2023-04-26T07:55:27.204Z,7.98
2023-04-26T07:58:14.091Z,7.82
2023-04-26T08:01:00.596Z,7.74
2023-04-26T08:03:48.333Z,7.91
2023-04-26T08:06:34.620Z,8.15
2023-04-26T08:09:21.392Z,8.26
2023-04-26T08:12:08.269Z,8.30
2023-04-26T08:14:55.251Z,8.21
2023-04-26T08:17:42.055Z,8.04
2023-04-26T08:20:28.713Z,7.90
2023-04-26T08:23:15.356Z,7.78
2023-04-26T08:26:02.774Z,7.79
2023-04-26T08:28:49.692Z,8.31
2023-04-26T08:31:36.663Z,9.90
2023-04-26T08:34:28.855Z,10.05
2023-04-26T08:37:15.491Z,9.42
2023-04-26T08:40:03.114Z,8.79
2023-04-26T08:42:51.931Z,8.48
2023-04-26T08:45:41.256Z,8.54
2023-04-26T08:48:33.699Z,9.26
2023-04-26T08:51:21.470Z,10.48
2023-04-26T08:54:09.663Z,10.21
2023-04-26T08:56:58.587Z,9.50
2023-04-26T08:59:45.719Z,8.89
2023-04-26T09:02:32.614Z,8.41
2023-04-26T09:05:26.607Z,8.04
2023-04-26T09:08:19.767Z,7.74
2023-04-26T09:11:06.622Z,7.97
2023-04-26T09:13:53.061Z,9.32
2023-04-26T09:16:40.087Z,9.77
2023-04-26T09:19:44.116Z,9.22
2023-04-26T09:22:36.820Z,8.73
2023-04-26T09:25:29.945Z,8.83
2023-04-26T09:28:22.799Z,10.16
2023-04-26T09:31:09.367Z,10.92
2023-04-26T09:34:00.360Z,10.35
2023-04-26T09:36:51.668Z,9.70
2023-04-26T09:39:41.087Z,9.23
2023-04-26T09:42:27.193Z,8.89
2023-04-26T09:45:15.786Z,9.59
2023-04-26T09:48:16.304Z,10.70
2023-04-26T09:51:02.764Z,10.52
2023-04-26T09:53:50.394Z,10.35
2023-04-26T09:56:36.628Z,10.20
2023-04-26T09:59:22.752Z,9.90
2023-04-26T10:02:15.660Z,9.52
2023-04-26T10:05:02.572Z,9.33
2023-04-26T10:07:51.100Z,10.09
2023-04-26T10:10:38.096Z,11.47
2023-04-26T10:13:24.366Z,11.60
2023-04-26T10:16:11.089Z,10.57
2023-04-26T10:18:58.628Z,9.69
2023-04-26T10:21:46.219Z,8.98
2023-04-26T10:24:35.729Z,8.76
2023-04-26T10:27:47.488Z,9.75
2023-04-26T10:30:54.231Z,9.91
2023-04-26T10:33:40.733Z,9.10
2023-04-26T10:36:27.464Z,8.59
2023-04-26T10:39:18.366Z,8.66
2023-04-26T10:42:31.968Z,9.93
2023-04-26T10:45:29.754Z,10.80
2023-04-26T10:48:25.003Z,10.13
2023-04-26T10:51:11.998Z,9.44
2023-04-26T10:53:59.037Z,8.97
2023-04-26T10:56:48.477Z,8.89
2023-04-26T10:59:47.123Z,10.02
2023-04-26T11:03:04.011Z,10.95
2023-04-26T11:05:53.778Z,10.46
2023-04-26T11:08:40.495Z,10.03
2023-04-26T11:11:29.171Z,10.58
2023-04-26T11:14:17.225Z,12.42
2023-04-26T11:17:07.804Z,13.14
2023-04-26T11:19:54.375Z,12.66
2023-04-26T11:22:41.716Z,12.11
2023-04-26T11:25:29.399Z,11.64
2023-04-26T11:28:18.996Z,11.10
2023-04-26T11:31:06.915Z,10.64
2023-04-26T11:33:53.253Z,10.37
2023-04-26T11:36:39.588Z,10.20
2023-04-26T11:39:26.597Z,10.23
2023-04-26T11:42:13.101Z,10.42
2023-04-26T11:45:01.088Z,10.50
2023-04-26T11:47:48.429Z,10.49
2023-04-26T11:50:36.766Z,10.51
2023-04-26T11:53:24.714Z,10.62
2023-04-26T11:56:22.437Z,10.91
2023-04-26T11:59:10.386Z,11.10
2023-04-26T12:01:57.945Z,11.04
2023-04-26T12:04:44.674Z,10.93
2023-04-26T12:07:39.338Z,10.91
2023-04-26T12:10:30.714Z,10.97
2023-04-26T12:13:16.928Z,11.05
2023-04-26T12:16:22.524Z,11.09
2023-04-26T12:19:12.849Z,11.21
2023-04-26T12:21:59.531Z,11.25
2023-04-26T12:24:47.503Z,11.11
2023-04-26T12:27:34.131Z,11.05
2023-04-26T12:30:21.213Z,11.02
2023-04-26T12:33:22.393Z,10.88
2023-04-26T12:36:12.074Z,10.65
2023-04-26T12:39:00.295Z,10.48
2023-04-26T12:41:46.829Z,10.56
2023-04-26T12:44:34.208Z,10.58
2023-04-26T12:47:20.964Z,10.40
2023-04-26T12:50:08.855Z,10.22
2023-04-26T12:52:55.914Z,10.17
2023-04-26T12:55:42.216Z,10.24
2023-04-26T12:58:28.527Z,10.47
2023-04-26T13:01:15.647Z,10.79
2023-04-26T13:04:21.168Z,10.95
2023-04-26T13:07:08.352Z,10.91
2023-04-26T13:09:55.032Z,10.92
2023-04-26T13:12:41.785Z,10.85
2023-04-26T13:15:29.317Z,10.72
2023-04-26T13:18:17.524Z,10.55
2023-04-26T13:21:04.601Z,10.35
2023-04-26T13:23:51.916Z,10.14
2023-04-26T13:26:39.108Z,9.97
2023-04-26T13:29:25.310Z,9.89
2023-04-26T13:32:13.091Z,9.86
2023-04-26T13:34:59.715Z,9.94
2023-04-26T13:37:46.343Z,10.07
2023-04-26T13:40:33.602Z,10.12
2023-04-26T13:43:20.117Z,10.21
2023-04-26T13:46:07.411Z,10.35
2023-04-26T13:48:54.925Z,10.36
2023-04-26T13:51:42.501Z,10.32
2023-04-26T13:54:29.168Z,10.24
2023-04-26T13:57:15.954Z,10.11
2023-04-26T14:00:03.490Z,10.03
2023-04-26T14:02:58.446Z,9.89
2023-04-26T14:05:45.401Z,9.79
2023-04-26T14:08:31.813Z,9.69
2023-04-26T14:11:19.902Z,9.73
2023-04-26T14:14:06.553Z,9.83
2023-04-26T14:16:56.049Z,9.94
2023-04-26T14:19:45.419Z,9.93
2023-04-26T14:22:32.618Z,9.80
2023-04-26T14:25:19.432Z,9.70
2023-04-26T14:28:07.678Z,9.57
2023-04-26T14:30:54.443Z,9.43
2023-04-26T14:33:40.878Z,9.30
2023-04-26T14:36:27.481Z,9.18
2023-04-26T14:39:13.615Z,9.04
2023-04-26T14:42:01.161Z,8.92
2023-04-26T14:44:47.523Z,8.84
2023-04-26T14:47:34.266Z,8.71
2023-04-26T14:50:20.717Z,8.60
2023-04-26T14:53:07.369Z,8.58
2023-04-26T14:55:58.708Z,8.75
2023-04-26T14:58:45.404Z,8.90
2023-04-26T15:01:32.663Z,9.08
2023-04-26T15:04:19.104Z,9.25
2023-04-26T15:07:06.219Z,9.41
2023-04-26T15:09:52.845Z,9.57
2023-04-26T15:12:39.642Z,9.72
2023-04-26T15:15:26.325Z,9.83
2023-04-26T15:18:13.286Z,9.96
2023-04-26T15:21:00.069Z,10.06
2023-04-26T15:23:46.775Z,10.05
2023-04-26T15:26:33.759Z,10.03
2023-04-26T15:29:20.725Z,9.98
2023-04-26T15:32:07.052Z,9.96
2023-04-26T15:34:53.821Z,10.03
2023-04-26T15:37:40.451Z,10.12
2023-04-26T15:40:27.160Z,10.14
2023-04-26T15:43:14.088Z,10.09
2023-04-26T15:46:01.150Z,10.10
2023-04-26T15:48:48.394Z,10.10
2023-04-26T15:51:34.762Z,10.10
2023-04-26T15:54:21.769Z,9.99
2023-04-26T15:57:08.497Z,9.74
2023-04-26T15:59:56.313Z,9.51
2023-04-26T16:02:44.043Z,9.33
2023-04-26T16:05:31.988Z,9.12
2023-04-26T16:08:32.816Z,8.95
2023-04-26T16:11:28.792Z,8.75
2023-04-26T16:14:15.624Z,8.60
2023-04-26T16:17:04.236Z,8.46
2023-04-26T16:19:50.737Z,8.27
2023-04-26T16:22:37.543Z,8.14
2023-04-26T16:25:23.742Z,8.07
2023-04-26T16:28:11.923Z,8.08
2023-04-26T16:30:58.893Z,8.13
2023-04-26T16:33:45.284Z,8.12
2023-04-26T16:36:32.760Z,8.07
2023-04-26T16:39:19.734Z,8.02
2023-04-26T16:42:08.300Z,7.96
2023-04-26T16:44:55.276Z,7.88
2023-04-26T16:47:44.817Z,7.78
2023-04-26T16:50:32.761Z,7.72
2023-04-26T16:53:20.725Z,7.68
2023-04-26T16:56:08.991Z,7.64
2023-04-26T16:58:55.416Z,7.63
2023-04-26T17:01:42.166Z,7.62
2023-04-26T17:04:33.015Z,7.60
2023-04-26T17:07:21.575Z,7.56
2023-04-26T17:10:08.734Z,7.53
2023-04-26T17:12:55.318Z,7.46
2023-04-26T17:15:42.742Z,7.40
2023-04-26T17:18:29.632Z,7.36
2023-04-26T17:21:15.889Z,7.32
2023-04-26T17:24:04.075Z,7.26
2023-04-26T17:26:50.541Z,7.20
2023-04-26T17:29:37.013Z,7.13
2023-04-26T17:32:25.566Z,7.06
2023-04-26T17:35:12.240Z,6.97
2023-04-26T17:37:58.668Z,6.89
2023-04-26T17:40:45.552Z,6.81
2023-04-26T17:43:35.291Z,6.73
2023-04-26T17:46:21.972Z,6.64
2023-04-26T17:49:10.632Z,6.56
2023-04-26T17:51:57.298Z,6.50
2023-04-26T17:54:43.432Z,6.41
2023-04-26T17:57:30.144Z,6.33
2023-04-26T18:00:17.419Z,6.25
2023-04-26T18:03:04.484Z,6.18
2023-04-26T18:05:50.767Z,6.09
2023-04-26T18:08:37.261Z,6.01
2023-04-26T18:11:23.870Z,5.92
2023-04-26T18:14:10.467Z,5.84
2023-04-26T18:16:56.910Z,5.75
2023-04-26T18:19:43.554Z,5.68
2023-04-26T18:22:30.421Z,5.60
2023-04-26T18:25:18.378Z,5.52
2023-04-26T18:28:08.059Z,5.45
2023-04-26T18:31:00.567Z,5.38
2023-04-26T18:33:48.068Z,5.31
2023-04-26T18:36:35.385Z,5.26
2023-04-26T18:39:21.720Z,5.21
2023-04-26T18:42:08.854Z,5.16
2023-04-26T18:44:56.808Z,5.12
2023-04-26T18:47:43.045Z,5.07
2023-04-26T18:50:29.575Z,5.01
2023-04-26T18:53:16.124Z,4.96
2023-04-26T18:56:04.281Z,4.93
2023-04-26T18:59:03.218Z,4.88
2023-04-26T19:01:56.756Z,4.83
2023-04-26T19:04:50.377Z,4.79
2023-04-26T19:07:39.435Z,4.75
2023-04-26T19:10:27.985Z,4.70
2023-04-26T19:13:17.880Z,4.67
2023-04-26T19:16:05.647Z,4.64
2023-04-26T19:18:52.371Z,4.60
2023-04-26T19:21:39.273Z,4.57
2023-04-26T19:24:25.648Z,4.53
2023-04-26T19:27:13.049Z,4.50
2023-04-26T19:29:59.932Z,4.48
2023-04-26T19:32:46.428Z,4.46
2023-04-26T19:35:32.645Z,4.45
2023-04-26T19:38:19.720Z,4.42
2023-04-26T19:41:06.258Z,4.40
2023-04-26T19:43:55.856Z,4.37
2023-04-26T19:46:44.369Z,4.35
2023-04-26T19:49:39.684Z,4.33
2023-04-26T19:52:27.505Z,4.29
2023-04-26T19:55:14.394Z,4.28
2023-04-26T19:58:04.171Z,4.25
2023-04-26T20:00:52.160Z,4.22
2023-04-26T20:03:44.110Z,4.20
2023-04-26T20:06:32.724Z,4.16
2023-04-26T20:09:19.296Z,4.12
2023-04-26T20:12:06.421Z,4.10
2023-04-26T20:14:53.939Z,4.08
2023-04-26T20:17:41.608Z,4.05
2023-04-26T20:20:28.631Z,4.03
2023-04-26T20:23:15.373Z,4.00
2023-04-26T20:26:02.570Z,3.97
2023-04-26T20:28:49.143Z,3.93
2023-04-26T20:31:35.870Z,3.89
2023-04-26T20:34:22.469Z,3.85
2023-04-26T20:37:08.938Z,3.82
2023-04-26T20:39:55.898Z,4.20
2023-04-26T20:42:42.362Z,6.43
2023-04-26T20:45:29.607Z,7.17
2023-04-26T20:48:15.953Z,6.39
2023-04-26T20:51:02.763Z,5.69
2023-04-26T20:53:49.371Z,5.20
2023-04-26T20:56:36.125Z,4.85
2023-04-26T20:59:25.032Z,4.58
2023-04-26T21:02:11.926Z,4.38
2023-04-26T21:04:58.431Z,4.20
2023-04-26T21:07:45.190Z,4.06
2023-04-26T21:10:31.672Z,4.25
2023-04-26T21:13:18.390Z,5.55
2023-04-26T21:16:06.161Z,5.86
2023-04-26T21:18:52.720Z,5.28
2023-04-26T21:21:40.393Z,4.82
2023-04-26T21:24:28.006Z,4.52
2023-04-26T21:27:18.395Z,4.30
2023-04-26T21:30:07.697Z,4.13
2023-04-26T21:32:54.636Z,4.40
2023-04-26T21:35:42.513Z,5.80
2023-04-26T21:38:28.987Z,7.04
2023-04-26T21:41:15.375Z,7.88
2023-04-26T21:44:02.446Z,8.03
2023-04-26T21:46:49.420Z,7.05
2023-04-26T21:49:38.884Z,6.18
2023-04-26T21:52:25.568Z,5.56
2023-04-26T21:55:12.202Z,5.13
2023-04-26T21:57:59.320Z,4.80
2023-04-26T22:00:47.666Z,4.52
2023-04-26T22:03:36.728Z,4.28
2023-04-26T22:06:23.289Z,4.39
2023-04-26T22:09:12.732Z,5.64
2023-04-26T22:11:59.366Z,6.77
2023-04-26T22:14:47.121Z,7.58
2023-04-26T22:17:33.671Z,7.70
2023-04-26T22:20:21.050Z,6.76
2023-04-26T22:23:08.108Z,5.94
2023-04-26T22:25:54.483Z,5.35
2023-04-26T22:28:41.095Z,4.92
2023-04-26T22:31:27.912Z,4.58
2023-04-26T22:34:14.400Z,4.30
2023-04-26T22:37:12.973Z,4.08
2023-04-26T22:40:07.655Z,4.32
2023-04-26T22:42:54.041Z,5.63
2023-04-26T22:45:40.346Z,6.78
2023-04-26T22:48:26.957Z,7.22
2023-04-26T22:51:13.423Z,6.36
2023-04-26T22:54:00.442Z,5.52
2023-04-26T22:56:47.091Z,4.96
2023-04-26T22:59:34.208Z,4.58
2023-04-26T23:02:21.162Z,4.62
2023-04-26T23:05:11.919Z,5.86
2023-04-26T23:07:58.652Z,6.94
2023-04-26T23:10:44.837Z,7.40
2023-04-26T23:13:33.612Z,6.61
2023-04-26T23:16:20.951Z,5.77
2023-04-26T23:19:08.916Z,5.17
2023-04-26T23:21:55.964Z,5.02
2023-04-26T23:24:42.459Z,6.12
2023-04-26T23:27:29.415Z,7.00
2023-04-26T23:30:16.583Z,6.51
2023-04-26T23:33:03.343Z,5.65
2023-04-26T23:35:51.484Z,5.07
2023-04-26T23:38:37.691Z,4.94
2023-04-26T23:41:24.123Z,6.04
2023-04-26T23:44:10.686Z,7.08
2023-04-26T23:46:56.822Z,7.78
2023-04-26T23:49:43.187Z,7.91
2023-04-26T23:52:29.648Z,6.88
2023-04-26T23:55:16.317Z,5.94
2023-04-26T23:58:02.608Z,5.26
